Time;durP1;ratioP1;P1;durP2;ratioP2;P2;SDS_P1;SDS_P2;PMS_P1;PMS_P2;Temp;Humidity;BMP_temperature;BMP_pressure;BME280_temperature;BME280_humidity;BME280_pressure;Samples;Min_cycle;Max_cycle;Signal;HPM_P1;HPM_P2
2021/11/01 00:02:13;;;;;;;0.00;0.00;;;10.00;99.90;;;;;;6297336;22;20022;-82
2021/11/01 00:04:43;;;;;;;0.00;0.00;;;10.00;99.90;;;;;;6297091;22;20019;-81
2021/11/01 00:07:11;;;;;;;0.08;0.08;;;10.00;99.90;;;;;;6297798;22;20015;-82
2021/11/01 00:09:38;;;;;;;0.00;0.00;;;10.00;99.90;;;;;;6271598;22;20471;-81
2021/11/01 00:12:05;;;;;;;0.10;0.10;;;9.90;99.90;;;;;;6247013;22;20011;-81
2021/11/01 00:14:32;;;;;;;0.00;0.00;;;9.90;99.90;;;;;;6296757;22;20018;-81
2021/11/01 00:16:59;;;;;;;0.20;0.20;;;9.90;99.90;;;;;;6296900;22;20097;-81
2021/11/01 00:19:27;;;;;;;0.00;0.00;;;9.90;99.90;;;;;;6296538;22;20015;-81
2021/11/01 00:21:54;;;;;;;0.00;0.00;;;10.00;99.90;;;;;;6322663;22;20125;-82
2021/11/01 00:24:20;;;;;;;0.00;0.00;;;9.90;99.90;;;;;;6246448;22;20050;-82
2021/11/01 00:26:47;;;;;;;0.00;0.00;;;9.80;99.90;;;;;;6246211;22;20482;-82
2021/11/01 00:29:14;;;;;;;0.00;0.00;;;9.80;99.90;;;;;;6297412;22;20015;-82
2021/11/01 00:31:41;;;;;;;0.00;0.00;;;9.80;99.90;;;;;;6296710;22;20340;-81
2021/11/01 00:34:07;;;;;;;0.00;0.00;;;9.80;99.90;;;;;;6297058;22;20012;-82
2021/11/01 00:36:34;;;;;;;0.00;0.00;;;9.80;99.90;;;;;;6246205;22;20077;-82
2021/11/01 00:39:01;;;;;;;0.00;0.00;;;9.80;99.90;;;;;;6246569;22;20030;-82
2021/11/01 00:41:28;;;;;;;0.10;0.10;;;9.80;99.90;;;;;;6246333;22;20080;-81
2021/11/01 00:43:54;;;;;;;0.00;0.00;;;9.80;99.90;;;;;;6246582;22;20019;-81
2021/11/01 00:46:21;;;;;;;0.00;0.00;;;9.80;99.90;;;;;;6296775;22;20026;-82
2021/11/01 00:48:49;;;;;;;0.00;0.00;;;9.80;99.90;;;;;;6246230;22;20026;-82
2021/11/01 00:51:16;;;;;;;0.00;0.00;;;9.80;99.90;;;;;;6298637;22;20015;-81
2021/11/01 00:53:48;;;;;;;0.00;0.00;;;9.80;99.90;;;;;;6273407;22;20057;-81
2021/11/01 00:56:16;;;;;;;0.00;0.00;;;9.70;99.90;;;;;;6300065;22;20392;-82
2021/11/01 00:58:44;;;;;;;0.00;0.00;;;9.70;99.90;;;;;;6273444;22;20019;-81
2021/11/01 01:01:14;;;;;;;0.00;0.00;;;9.70;99.90;;;;;;6298747;22;20367;-82
2021/11/01 01:03:42;;;;;;;0.10;0.10;;;9.70;99.90;;;;;;6298711;22;20019;-82
2021/11/01 01:06:09;;;;;;;0.10;0.10;;;9.60;99.90;;;;;;6273678;22;20546;-81
2021/11/01 01:08:35;;;;;;;0.00;0.00;;;9.60;99.90;;;;;;6273506;22;20165;-82
2021/11/01 01:11:02;;;;;;;0.00;0.00;;;9.60;99.90;;;;;;6324220;22;20340;-82
2021/11/01 01:13:34;;;;;;;0.00;0.00;;;9.60;99.90;;;;;;6324276;22;20149;-82
2021/11/01 01:18:33;;;;;;;0.00;0.00;;;9.60;99.90;;;;;;6298727;22;20047;-82
2021/11/01 01:21:12;;;;;;;0.03;0.03;;;9.60;99.90;;;;;;6274195;22;20055;-82
2021/11/01 01:23:38;;;;;;;0.38;0.32;;;9.60;99.90;;;;;;6323600;22;20022;-82
2021/11/01 01:26:05;;;;;;;0.00;0.00;;;9.50;99.90;;;;;;6248395;22;20027;-82
2021/11/01 01:28:32;;;;;;;0.10;0.10;;;9.50;99.90;;;;;;6273115;22;20019;-82
2021/11/01 01:31:00;;;;;;;0.00;0.00;;;9.60;99.90;;;;;;6298578;22;20022;-82
2021/11/01 01:33:27;;;;;;;0.10;0.10;;;9.50;99.90;;;;;;6274127;22;20011;-82
2021/11/01 01:35:56;;;;;;;0.00;0.00;;;9.50;99.90;;;;;;6247701;22;20026;-81
2021/11/01 01:38:23;;;;;;;0.00;0.00;;;9.50;99.90;;;;;;6298984;22;20015;-81
2021/11/01 01:40:49;;;;;;;0.05;0.05;;;9.50;99.90;;;;;;6272647;22;20022;-81
2021/11/01 01:43:16;;;;;;;0.00;0.00;;;9.50;99.90;;;;;;6298070;22;20015;-82
2021/11/01 01:45:43;;;;;;;0.10;0.10;;;9.40;99.90;;;;;;6323440;22;20020;-81
2021/11/01 01:48:10;;;;;;;0.00;0.00;;;9.50;99.90;;;;;;6298537;22;20022;-82
2021/11/01 01:50:37;;;;;;;0.05;0.05;;;9.40;99.90;;;;;;6247620;22;20105;-82
2021/11/01 01:53:04;;;;;;;0.00;0.00;;;9.40;99.90;;;;;;6298230;22;20371;-82
2021/11/01 01:55:31;;;;;;;0.00;0.00;;;9.40;99.90;;;;;;6323839;22;20026;-82
2021/11/01 01:57:58;;;;;;;0.00;0.00;;;9.40;99.90;;;;;;6297779;22;20097;-81
2021/11/01 02:00:49;;;;;;;0.00;0.00;;;9.40;99.90;;;;;;6248225;22;20464;-81
2021/11/01 02:03:16;;;;;;;0.10;0.10;;;9.40;99.90;;;;;;6297863;22;20018;-81
2021/11/01 02:06:05;;;;;;;0.00;0.00;;;9.40;99.90;;;;;;6323404;22;20015;-81
2021/11/01 02:08:39;;;;;;;0.10;0.10;;;9.40;99.90;;;;;;6298084;22;20011;-82
2021/11/01 02:11:13;;;;;;;0.00;0.00;;;9.30;99.90;;;;;;6298171;22;20085;-81
2021/11/01 02:13:44;;;;;;;0.00;0.00;;;9.40;99.90;;;;;;6298081;22;20521;-81
2021/11/01 02:16:13;;;;;;;0.10;0.10;;;9.30;99.90;;;;;;6273686;22;20471;-81
2021/11/01 02:18:43;;;;;;;0.10;0.10;;;9.30;99.90;;;;;;6322876;22;20015;-82
2021/11/01 02:21:24;;;;;;;0.00;0.00;;;9.30;99.90;;;;;;6323292;22;20022;-82
2021/11/01 02:23:59;;;;;;;0.10;0.10;;;9.30;99.90;;;;;;6297395;22;20344;-82
2021/11/01 02:26:27;;;;;;;0.10;0.10;;;9.20;99.90;;;;;;6297922;22;20019;-82
2021/11/01 02:28:54;;;;;;;0.00;0.00;;;9.30;99.90;;;;;;6297506;22;20015;-81
2021/11/01 02:31:21;;;;;;;0.08;0.08;;;9.20;99.90;;;;;;6298097;22;20066;-82
2021/11/01 02:33:49;;;;;;;0.10;0.10;;;9.20;99.90;;;;;;6323007;22;20090;-81
2021/11/01 02:36:17;;;;;;;5.57;0.25;;;9.20;99.90;;;;;;6297655;22;20027;-81
2021/11/01 02:38:49;;;;;;;0.00;0.00;;;9.20;99.90;;;;;;6247719;22;20023;-81
2021/11/01 02:41:24;;;;;;;0.08;0.08;;;9.10;99.90;;;;;;6297765;22;20456;-81
2021/11/01 02:43:55;;;;;;;0.10;0.10;;;9.20;99.90;;;;;;6297319;22;20616;-81
2021/11/01 02:46:23;;;;;;;0.00;0.00;;;9.10;99.90;;;;;;6297675;22;20470;-82
2021/11/01 02:48:51;;;;;;;0.00;0.00;;;9.10;99.90;;;;;;6297217;22;20340;-82
2021/11/01 02:51:21;;;;;;;0.10;0.10;;;9.10;99.90;;;;;;6272158;22;20011;-81
2021/11/01 02:53:49;;;;;;;0.10;0.10;;;9.10;99.90;;;;;;6322443;22;20089;-81
2021/11/01 02:56:17;;;;;;;0.05;0.05;;;9.10;99.90;;;;;;6297809;22;20023;-81
2021/11/01 02:58:45;;;;;;;0.00;0.00;;;9.10;99.90;;;;;;6297434;22;20038;-80
2021/11/01 03:01:15;;;;;;;0.10;0.10;;;9.10;99.90;;;;;;6323072;22;20073;-81
2021/11/01 03:03:43;;;;;;;0.03;0.03;;;9.10;99.90;;;;;;6297484;22;20344;-81
2021/11/01 03:06:12;;;;;;;0.00;0.00;;;9.00;99.90;;;;;;6323152;22;20452;-81
2021/11/01 03:08:40;;;;;;;0.20;0.10;;;9.00;99.90;;;;;;6323005;22;20015;-82
2021/11/01 03:11:08;;;;;;;0.08;0.08;;;9.00;99.90;;;;;;6271735;22;20008;-81
2021/11/01 03:13:35;;;;;;;0.08;0.08;;;9.00;99.90;;;;;;6322734;22;20007;-81
2021/11/01 03:16:05;;;;;;;0.03;0.03;;;9.00;99.90;;;;;;6271701;22;20069;-81
2021/11/01 03:18:43;;;;;;;0.10;0.10;;;9.00;99.90;;;;;;6297310;22;20042;-81
2021/11/01 03:21:12;;;;;;;0.10;0.10;;;8.90;99.90;;;;;;6273910;22;20113;-82
2021/11/01 03:23:39;;;;;;;0.00;0.00;;;8.90;99.90;;;;;;6323029;22;20015;-82
2021/11/01 03:26:10;;;;;;;0.00;0.00;;;9.00;99.90;;;;;;6271401;22;20026;-82
2021/11/01 03:28:37;;;;;;;0.00;0.00;;;8.90;99.90;;;;;;6297691;22;20096;-82
2021/11/01 03:31:06;;;;;;;0.00;0.00;;;8.90;99.90;;;;;;6271928;22;20023;-81
2021/11/01 03:33:38;;;;;;;0.00;0.00;;;8.90;99.90;;;;;;6297592;22;20011;-82
2021/11/01 03:36:06;;;;;;;0.10;0.10;;;8.90;99.90;;;;;;6272433;22;20448;-81
2021/11/01 03:38:35;;;;;;;0.10;0.10;;;9.00;99.90;;;;;;6271746;22;20448;-81
2021/11/01 03:41:08;;;;;;;0.10;0.10;;;8.90;99.90;;;;;;6296463;22;20023;-81
2021/11/01 03:43:44;;;;;;;0.03;0.03;;;8.90;99.90;;;;;;6272981;22;20019;-82
2021/11/01 03:46:12;;;;;;;0.00;0.00;;;8.80;99.90;;;;;;6322262;22;20098;-81
2021/11/01 03:48:43;;;;;;;0.10;0.10;;;8.80;99.90;;;;;;6297051;22;20038;-82
2021/11/01 03:51:39;;;;;;;0.10;0.10;;;8.80;99.90;;;;;;6297092;22;20011;-81
2021/11/01 03:54:00;;;;;;;0.00;0.00;;;8.80;99.90;;;;;;6301378;22;20011;-82
2021/11/01 03:56:28;;;;;;;0.00;0.00;;;8.80;99.90;;;;;;6246763;22;20052;-82
2021/11/01 03:58:56;;;;;;;0.10;0.10;;;8.80;99.90;;;;;;6246570;22;20022;-81
2021/11/01 04:01:23;;;;;;;0.00;0.00;;;8.80;99.90;;;;;;6297505;22;20399;-81
2021/11/01 04:03:50;;;;;;;0.00;0.00;;;8.80;99.90;;;;;;6297664;22;20015;-81
2021/11/01 04:06:19;;;;;;;0.00;0.00;;;8.80;99.90;;;;;;6296993;22;20015;-81
2021/11/01 04:08:45;;;;;;;0.00;0.00;;;8.70;99.90;;;;;;6248195;22;20026;-81
2021/11/01 04:11:12;;;;;;;0.00;0.00;;;8.70;99.90;;;;;;6246630;22;20012;-81
2021/11/01 04:13:39;;;;;;;0.00;0.00;;;8.80;99.90;;;;;;6297222;22;20070;-81
2021/11/01 04:16:14;;;;;;;0.10;0.10;;;8.70;99.90;;;;;;6271155;22;20051;-81
2021/11/01 04:21:27;;;;;;;0.08;0.08;;;8.70;99.90;;;;;;6300903;22;20019;-81
2021/11/01 04:23:56;;;;;;;0.10;0.10;;;8.70;99.90;;;;;;6322124;22;20629;-81
2021/11/01 04:26:23;;;;;;;0.00;0.00;;;8.70;99.90;;;;;;6324028;22;20023;-81
2021/11/01 04:28:50;;;;;;;0.08;0.08;;;8.70;99.90;;;;;;6273960;22;20407;-81
2021/11/01 04:31:24;;;;;;;0.00;0.00;;;8.70;99.90;;;;;;6298630;22;20343;-81
2021/11/01 04:33:54;;;;;;;0.00;0.00;;;8.70;99.90;;;;;;6300530;22;20022;-81
2021/11/01 04:36:21;;;;;;;0.00;0.00;;;8.70;99.90;;;;;;6249777;22;20015;-81
2021/11/01 04:39:05;;;;;;;0.00;0.00;;;8.60;99.90;;;;;;6273627;22;20046;-81
2021/11/01 04:41:40;;;;;;;0.10;0.10;;;8.70;99.90;;;;;;6302659;22;20034;-81
2021/11/01 04:55:20;;;;;;;0.08;0.08;;;8.60;99.90;;;;;;6302271;22;20019;-81
2021/11/01 04:57:47;;;;;;;0.00;0.00;;;8.60;99.90;;;;;;6274348;22;20161;-82
2021/11/01 05:00:14;;;;;;;0.10;0.10;;;8.60;99.90;;;;;;6297912;22;20071;-81
2021/11/01 05:02:46;;;;;;;0.10;0.10;;;8.50;99.90;;;;;;6298893;22;20336;-81
2021/11/01 05:05:13;;;;;;;0.00;0.00;;;8.50;99.90;;;;;;6325222;22;20073;-81
2021/11/01 05:07:41;;;;;;;0.00;0.00;;;8.50;99.90;;;;;;6273465;22;20379;-81
2021/11/01 05:10:23;;;;;;;0.10;0.10;;;8.50;99.90;;;;;;6298393;22;20015;-80
2021/11/01 05:12:50;;;;;;;0.10;0.10;;;8.50;99.90;;;;;;6254745;22;20065;-80
2021/11/01 05:17:53;;;;;;;0.10;0.10;;;8.50;99.90;;;;;;6274523;22;20011;-81
2021/11/01 05:20:45;;;;;;;0.10;0.10;;;8.50;99.90;;;;;;6274060;22;20387;-82
2021/11/01 05:25:44;;;;;;;0.10;0.10;;;8.50;99.90;;;;;;6275690;22;20026;-81
2021/11/01 05:28:27;;;;;;;0.00;0.00;;;8.50;99.90;;;;;;6274114;22;20008;-81
2021/11/01 05:30:58;;;;;;;0.00;0.00;;;8.50;99.90;;;;;;6301993;22;20018;-81
2021/11/01 05:33:44;;;;;;;0.00;0.00;;;8.40;99.90;;;;;;6273641;22;20012;-81
2021/11/01 05:36:12;;;;;;;0.10;0.10;;;8.40;99.90;;;;;;6297696;22;20011;-81
2021/11/01 05:38:38;;;;;;;0.10;0.10;;;8.40;99.90;;;;;;6247649;22;20015;-81
2021/11/01 05:41:05;;;;;;;0.10;0.10;;;8.40;99.90;;;;;;6297866;22;20431;-81
2021/11/01 05:43:32;;;;;;;0.10;0.10;;;8.50;99.90;;;;;;6248064;22;20069;-81
2021/11/01 05:45:59;;;;;;;0.10;0.10;;;8.40;99.90;;;;;;6324034;22;20057;-81
2021/11/01 05:48:26;;;;;;;0.10;0.10;;;8.40;99.90;;;;;;6297719;22;20051;-80
2021/11/01 05:50:53;;;;;;;0.10;0.10;;;8.40;99.90;;;;;;6298119;22;20050;-82
2021/11/01 05:53:21;;;;;;;0.10;0.10;;;8.40;99.90;;;;;;6272626;22;20015;-82
2021/11/01 05:56:11;;;;;;;0.00;0.00;;;8.40;99.90;;;;;;6299281;22;20014;-81
2021/11/01 05:58:53;;;;;;;0.10;0.10;;;8.40;99.90;;;;;;6257525;22;20444;-82
2021/11/01 06:03:58;;;;;;;0.10;0.10;;;8.30;99.90;;;;;;6298207;22;20477;-82
2021/11/01 06:06:54;;;;;;;0.00;0.00;;;8.30;99.90;;;;;;6323517;22;20019;-81
2021/11/01 06:14:29;;;;;;;0.10;0.10;;;8.30;99.90;;;;;;6301406;22;20129;-81
2021/11/01 06:16:56;;;;;;;0.05;0.05;;;8.40;99.90;;;;;;6297780;22;20030;-81
2021/11/01 06:19:23;;;;;;;0.10;0.10;;;8.30;99.90;;;;;;6297157;22;20015;-81
2021/11/01 06:21:51;;;;;;;0.08;0.08;;;8.30;99.90;;;;;;6272480;22;20062;-81
2021/11/01 06:26:50;;;;;;;0.00;0.00;;;8.30;99.90;;;;;;6298831;22;20023;-81
2021/11/01 06:29:20;;;;;;;0.10;0.10;;;8.30;99.90;;;;;;6271622;22;20294;-81
2021/11/01 06:31:58;;;;;;;0.10;0.10;;;8.40;99.90;;;;;;6248850;22;20011;-81
2021/11/01 06:34:39;;;;;;;0.08;0.08;;;8.30;99.90;;;;;;6274306;22;20022;-81
2021/11/01 06:56:03;;;;;;;0.03;0.03;;;8.40;99.90;;;;;;6322952;22;19911;-81
2021/11/01 06:58:39;;;;;;;0.05;0.05;;;8.30;99.90;;;;;;6252754;22;20500;-81
2021/11/01 07:17:47;;;;;;;0.10;0.10;;;8.40;99.90;;;;;;6273840;22;20019;-81
2021/11/01 08:44:52;;;;;;;0.00;0.00;;;9.60;99.90;;;;;;6322267;22;20050;-81
2021/11/01 09:22:29;;;;;;;0.00;0.00;;;9.80;99.90;;;;;;6302777;22;20284;-79
2021/11/01 09:35:42;;;;;;;0.00;0.00;;;9.90;99.90;;;;;;6289411;22;20102;-81
2021/11/01 09:41:43;;;;;;;0.00;0.00;;;10.10;99.90;;;;;;6323337;22;20352;-79
2021/11/01 09:44:14;;;;;;;0.00;0.00;;;10.20;99.90;;;;;;6273008;22;20076;-79
2021/11/01 09:46:41;;;;;;;0.00;0.00;;;10.20;99.90;;;;;;6249894;22;20403;-79
2021/11/01 09:49:14;;;;;;;0.20;0.20;;;10.30;99.90;;;;;;6272751;22;20086;-79
2021/11/01 09:51:43;;;;;;;0.00;0.00;;;10.30;99.90;;;;;;6299364;22;20656;-78
2021/11/01 09:54:19;;;;;;;0.10;0.10;;;10.30;99.90;;;;;;6323818;22;20050;-79
2021/11/01 09:56:59;;;;;;;0.00;0.00;;;10.40;99.90;;;;;;6300129;22;20023;-79
2021/11/01 09:59:33;;;;;;;0.00;0.00;;;10.50;99.90;;;;;;6298314;22;20023;-78
2021/11/01 10:02:00;;;;;;;0.00;0.00;;;10.50;99.90;;;;;;6298397;22;20030;-79
2021/11/01 10:04:30;;;;;;;0.00;0.00;;;10.60;99.90;;;;;;6273123;22;20023;-79
2021/11/01 10:07:23;;;;;;;0.00;0.00;;;10.60;99.90;;;;;;6297545;22;20023;-79
2021/11/01 10:10:04;;;;;;;0.00;0.00;;;10.60;99.90;;;;;;6297660;22;20011;-79
2021/11/01 10:12:35;;;;;;;0.00;0.00;;;10.70;99.90;;;;;;6298075;22;20011;-78
2021/11/01 10:18:12;;;;;;;0.00;0.00;;;10.60;99.90;;;;;;6323105;22;20019;-78
2021/11/01 10:20:47;;;;;;;0.00;0.00;;;10.60;99.90;;;;;;6297759;22;20019;-79
2021/11/01 10:23:23;;;;;;;0.00;0.00;;;10.60;99.90;;;;;;6297961;22;20015;-79
2021/11/01 10:25:52;;;;;;;0.00;0.00;;;10.60;99.90;;;;;;6297235;22;20348;-78
2021/11/01 10:28:29;;;;;;;0.00;0.00;;;10.70;99.90;;;;;;6272606;22;20015;-78
2021/11/01 10:31:11;;;;;;;0.00;0.00;;;10.70;99.90;;;;;;6297325;22;20098;-79
2021/11/01 10:33:46;;;;;;;0.00;0.00;;;10.80;99.90;;;;;;6297314;22;20518;-79
2021/11/01 10:36:24;;;;;;;1.05;0.25;;;10.80;99.90;;;;;;6297903;22;20034;-79
2021/11/01 10:39:21;;;;;;;0.00;0.00;;;10.90;99.90;;;;;;6297344;22;20019;-79
2021/11/01 11:10:54;;;;;;;0.00;0.00;;;11.10;99.90;;;;;;6322625;22;20015;-80
2021/11/01 11:12:33;;;;;;;0.00;0.00;;;11.10;99.90;;;;;;6301430;22;19978;-79
2021/11/01 11:15:35;;;;;;;0.00;0.00;;;11.20;99.90;;;;;;6276373;22;20086;-84
2021/11/01 11:31:52;;;;;;;0.00;0.00;;;11.30;99.90;;;;;;6322971;22;19972;-86
2021/11/01 11:37:42;;;;;;;0.00;0.00;;;11.40;99.90;;;;;;6323099;22;20022;-86
2021/11/01 11:50:29;;;;;;;0.00;0.00;;;11.50;99.90;;;;;;6299959;22;20015;-84
2021/11/01 11:53:14;;;;;;;0.00;0.00;;;11.50;99.90;;;;;;6324491;22;20026;-83
2021/11/01 11:55:43;;;;;;;0.00;0.00;;;11.50;99.90;;;;;;6297753;22;20015;-84
2021/11/01 11:58:12;;;;;;;0.00;0.00;;;11.60;99.90;;;;;;6297079;22;20037;-83
2021/11/01 12:00:40;;;;;;;0.00;0.00;;;11.60;99.90;;;;;;6297414;22;20019;-83
2021/11/01 12:03:12;;;;;;;0.00;0.00;;;11.60;99.90;;;;;;6272683;22;20023;-83
2021/11/01 12:05:54;;;;;;;0.00;0.00;;;11.60;99.90;;;;;;6298437;22;20051;-83
2021/11/01 12:08:41;;;;;;;0.00;0.00;;;11.60;99.90;;;;;;6323776;22;20015;-83
2021/11/01 12:19:10;;;;;;;0.00;0.00;;;11.50;99.90;;;;;;6323060;22;20019;-84
2021/11/01 12:21:41;;;;;;;0.00;0.00;;;11.50;99.90;;;;;;6297658;22;20463;-83
2021/11/01 12:24:10;;;;;;;0.00;0.00;;;11.50;99.90;;;;;;6272025;22;20448;-82
2021/11/01 12:26:40;;;;;;;0.00;0.00;;;11.60;99.90;;;;;;6297555;22;20023;-83
2021/11/01 12:29:09;;;;;;;0.00;0.00;;;11.60;99.90;;;;;;6322466;22;20011;-84
2021/11/01 12:31:37;;;;;;;0.00;0.00;;;11.60;99.90;;;;;;6297803;22;20065;-87
2021/11/01 12:34:20;;;;;;;0.00;0.00;;;11.70;99.90;;;;;;6297251;22;20034;-83
2021/11/01 12:37:04;;;;;;;0.00;0.00;;;11.70;99.90;;;;;;6275514;22;20085;-84
2021/11/01 12:42:27;;;;;;;0.00;0.00;;;11.70;99.90;;;;;;6323634;22;20027;-84
2021/11/01 12:45:49;;;;;;;0.00;0.00;;;11.80;99.90;;;;;;6297854;22;20047;-85
2021/11/01 12:57:16;;;;;;;0.00;0.00;;;11.80;99.90;;;;;;6325685;22;20019;-86
2021/11/01 12:59:47;;;;;;;0.00;0.00;;;11.80;99.90;;;;;;6299740;22;20447;-86
2021/11/01 13:02:24;;;;;;;0.00;0.00;;;11.80;99.90;;;;;;6299024;22;20014;-84
2021/11/01 13:04:51;;;;;;;0.00;0.00;;;11.70;99.90;;;;;;6276448;22;20011;-85
2021/11/01 13:13:24;;;;;;;0.00;0.00;;;11.70;99.90;;;;;;6302306;22;20080;-83
2021/11/01 13:18:40;;;;;;;0.00;0.00;;;11.70;99.90;;;;;;6353142;22;20038;-87
2021/11/01 13:21:23;;;;;;;0.00;0.00;;;11.80;99.90;;;;;;6274624;22;20023;-88
2021/11/01 13:23:59;;;;;;;0.00;0.00;;;11.80;99.90;;;;;;6299788;22;20566;-87
2021/11/01 13:34:44;;;;;;;0.00;0.00;;;11.80;99.90;;;;;;6325188;22;20015;-82
2021/11/01 13:35:30;;;;;;;0.55;0.20;;;11.80;99.90;;;;;;6283745;22;20051;-92
2021/11/01 13:38:04;;;;;;;0.00;0.00;;;11.80;99.90;;;;;;6326706;22;20022;-87
2021/11/01 13:40:37;;;;;;;0.00;0.00;;;11.70;99.90;;;;;;6300328;22;20022;-82
2021/11/01 13:43:04;;;;;;;0.00;0.00;;;11.70;99.90;;;;;;6301258;22;20026;-87
2021/11/01 13:45:39;;;;;;;0.00;0.00;;;11.70;99.90;;;;;;6274483;22;20015;-84
2021/11/01 13:48:05;;;;;;;0.00;0.00;;;11.70;99.90;;;;;;6325443;22;20019;-88
2021/11/01 13:50:39;;;;;;;0.00;0.00;;;11.70;99.90;;;;;;6249347;22;20023;-84
2021/11/01 13:53:11;;;;;;;0.00;0.00;;;11.70;99.90;;;;;;6274411;22;20098;-85
2021/11/01 13:55:58;;;;;;;0.00;0.00;;;11.70;99.90;;;;;;6276193;22;20011;-91
2021/11/01 14:03:46;;;;;;;0.00;0.00;;;11.70;99.90;;;;;;6300983;22;20022;-86
2021/11/01 14:12:12;;;;;;;0.00;0.00;;;11.70;99.90;;;;;;6324891;22;20016;-86
2021/11/01 14:17:56;;;;;;;0.00;0.00;;;11.70;99.90;;;;;;6281475;22;20130;-89
2021/11/01 14:34:22;;;;;;;0.00;0.00;;;11.50;99.90;;;;;;6284311;22;20015;-95
2021/11/01 15:22:33;;;;;;;0.00;0.00;;;10.80;99.90;;;;;;6301491;22;20025;-93
2021/11/01 15:35:36;;;;;;;0.00;0.00;;;10.70;99.90;;;;;;6280288;22;20011;-84
2021/11/01 15:38:18;;;;;;;0.03;0.03;;;10.50;99.90;;;;;;6281415;22;20019;-93
2021/11/01 16:18:59;;;;;;;0.00;0.00;;;10.00;99.90;;;;;;6325051;22;20016;-81
2021/11/01 16:21:26;;;;;;;0.10;0.10;;;10.00;99.90;;;;;;6275824;22;20463;-85
2021/11/01 16:23:55;;;;;;;0.00;0.00;;;10.00;99.90;;;;;;6275472;22;20019;-86
2021/11/01 16:26:34;;;;;;;0.10;0.10;;;9.90;99.90;;;;;;6299959;22;20474;-82
2021/11/01 16:29:10;;;;;;;0.00;0.00;;;9.80;99.90;;;;;;6302296;22;20097;-81
2021/11/01 16:34:29;;;;;;;0.10;0.10;;;9.80;99.90;;;;;;6325511;22;20328;-85
2021/11/01 16:39:37;;;;;;;0.00;0.00;;;9.70;99.90;;;;;;6299026;22;20038;-85
2021/11/01 16:42:04;;;;;;;0.10;0.10;;;9.70;99.90;;;;;;6299266;22;20026;-84
2021/11/01 16:44:36;;;;;;;0.00;0.00;;;9.60;99.90;;;;;;6249584;22;20019;-85
2021/11/01 16:47:04;;;;;;;0.00;0.00;;;9.60;99.90;;;;;;6300468;22;20404;-85
2021/11/01 16:49:31;;;;;;;0.10;0.10;;;9.60;99.90;;;;;;6299712;22;20022;-87
2021/11/01 16:52:09;;;;;;;0.00;0.00;;;9.50;99.90;;;;;;6299573;22;20015;-84
2021/11/01 16:54:37;;;;;;;0.00;0.00;;;9.60;99.90;;;;;;6325504;22;20011;-80
2021/11/01 16:57:12;;;;;;;0.10;0.10;;;9.50;99.90;;;;;;6300971;22;20011;-85
2021/11/01 17:04:58;;;;;;;0.00;0.00;;;9.40;99.90;;;;;;6325392;22;20062;-86
2021/11/01 17:26:36;;;;;;;0.00;0.00;;;9.10;99.90;;;;;;6303776;22;20023;-81
2021/11/01 17:35:03;;;;;;;0.00;0.00;;;9.00;99.90;;;;;;6302462;22;20026;-86
2021/11/01 17:37:54;;;;;;;;;;;8.90;99.90;;;;;;6301754;22;20073;-82
2021/11/01 18:41:37;;;;;;;0.10;0.10;;;8.70;99.90;;;;;;6324585;22;20019;-86
2021/11/01 18:44:58;;;;;;;0.00;0.00;;;8.70;99.90;;;;;;6301726;22;20073;-87
2021/11/01 18:52:15;;;;;;;0.10;0.10;;;8.60;99.90;;;;;;6302227;22;20446;-81
2021/11/01 18:54:49;;;;;;;0.10;0.10;;;8.70;99.90;;;;;;6298178;22;20098;-82
2021/11/01 18:57:18;;;;;;;0.00;0.00;;;8.70;99.90;;;;;;6296971;22;20531;-82
2021/11/01 18:59:46;;;;;;;0.00;0.00;;;8.70;99.90;;;;;;6296447;22;20348;-85
2021/11/01 19:02:39;;;;;;;0.10;0.10;;;8.70;99.90;;;;;;6298022;22;20023;-86
2021/11/01 19:05:32;;;;;;;0.00;0.00;;;8.80;99.90;;;;;;6298475;22;20027;-82
2021/11/01 20:04:20;;;;;;;0.10;0.10;;;8.70;99.90;;;;;;6302235;22;20050;-86
2021/11/01 21:24:50;;;;;;;0.00;0.00;;;8.20;99.90;;;;;;6304690;22;20015;-86
2021/11/01 21:27:21;;;;;;;0.00;0.00;;;8.10;99.90;;;;;;6279603;22;20411;-86
2021/11/01 21:29:49;;;;;;;0.10;0.10;;;8.10;99.90;;;;;;6300897;22;20015;-86
2021/11/01 21:32:16;;;;;;;0.00;0.00;;;8.10;99.90;;;;;;6273894;22;20015;-85
2021/11/01 21:34:53;;;;;;;0.10;0.10;;;8.10;99.90;;;;;;6274983;22;20022;-81
2021/11/01 21:37:21;;;;;;;0.00;0.00;;;8.10;99.90;;;;;;6301103;22;20042;-81
2021/11/01 21:39:47;;;;;;;0.00;0.00;;;8.00;99.90;;;;;;6300456;22;20042;-82
2021/11/01 21:42:15;;;;;;;0.00;0.00;;;8.00;99.90;;;;;;6248976;22;20016;-82
2021/11/01 21:44:42;;;;;;;0.00;0.00;;;8.00;99.90;;;;;;6250862;22;20510;-85
2021/11/01 21:47:09;;;;;;;0.10;0.10;;;8.00;99.90;;;;;;6249879;22;20058;-87
2021/11/01 21:49:36;;;;;;;0.00;0.00;;;7.90;99.90;;;;;;6249580;22;20019;-87
2021/11/01 21:52:03;;;;;;;0.00;0.00;;;7.90;99.90;;;;;;6273017;22;20026;-80
2021/11/01 21:54:33;;;;;;;0.00;0.00;;;7.80;99.90;;;;;;6299551;22;20438;-85
2021/11/01 21:57:04;;;;;;;0.10;0.10;;;7.80;99.90;;;;;;6298645;22;20025;-81
2021/11/01 21:59:51;;;;;;;0.10;0.10;;;7.80;99.90;;;;;;6302347;22;20012;-81
2021/11/01 22:21:44;;;;;;;0.10;0.10;;;7.50;99.90;;;;;;6279666;22;20022;-81
2021/11/01 22:24:15;;;;;;;0.00;0.00;;;7.50;99.90;;;;;;6253302;22;20011;-82
2021/11/01 22:31:55;;;;;;;0.10;0.10;;;7.50;99.90;;;;;;6299715;22;20008;-82
2021/11/01 22:56:45;;;;;;;0.10;0.10;;;7.20;99.90;;;;;;6282957;22;20019;-81
2021/11/01 22:59:13;;;;;;;0.10;0.10;;;7.20;99.90;;;;;;6276041;22;20011;-85
2021/11/01 23:01:42;;;;;;;0.10;0.10;;;7.20;99.90;;;;;;6298547;22;20474;-85
2021/11/01 23:33:54;;;;;;;0.10;0.10;;;7.10;99.90;;;;;;6304424;22;20057;-86
2021/11/01 23:36:21;;;;;;;0.10;0.10;;;6.90;99.90;;;;;;6247990;22;20015;-82
2021/11/01 23:38:47;;;;;;;0.10;0.10;;;6.80;99.90;;;;;;6300108;22;20028;-83
2021/11/01 23:41:14;;;;;;;0.10;0.10;;;6.90;99.90;;;;;;6300130;22;20086;-86
2021/11/01 23:43:41;;;;;;;0.10;0.10;;;6.80;99.90;;;;;;6298175;22;20646;-87
2021/11/01 23:46:08;;;;;;;0.10;0.10;;;6.70;99.90;;;;;;6300367;22;20083;-83
2021/11/01 23:48:35;;;;;;;0.10;0.10;;;6.70;99.90;;;;;;6249667;22;20012;-82
2021/11/01 23:51:02;;;;;;;0.10;0.10;;;6.70;99.90;;;;;;6298605;22;20018;-86
2021/11/01 23:56:21;;;;;;;0.10;0.10;;;6.60;99.90;;;;;;6284723;22;20023;-83
2021/11/01 23:58:48;;;;;;;0.10;0.10;;;6.60;99.90;;;;;;6300786;22;20035;-83
